Time;durP1;ratioP1;P1;durP2;ratioP2;P2;SDS_P1;SDS_P2;PMS_P1;PMS_P2;Temp;Humidity;BMP_temperature;BMP_pressure;BME280_temperature;BME280_humidity;BME280_pressure;Samples;Min_cycle;Max_cycle;Signal;HPM_P1;HPM_P2
2024/03/14 00:00:08;;;;;;;16.80;15.40;;;8.00;99.90;;;;;;4795277;29;20965;-40
2024/03/14 00:02:35;;;;;;;17.10;15.57;;;8.10;99.90;;;;;;4803490;29;20938;-51
2024/03/14 00:05:01;;;;;;;16.50;15.20;;;8.10;99.90;;;;;;4802011;29;20519;-49
2024/03/14 00:07:27;;;;;;;16.70;15.40;;;8.10;99.90;;;;;;4804508;29;20466;-47
2024/03/14 00:09:52;;;;;;;15.17;14.07;;;8.10;99.90;;;;;;4813306;29;20524;-46
2024/03/14 00:12:18;;;;;;;15.87;14.67;;;8.10;99.90;;;;;;4806198;29;20397;-49
2024/03/14 00:14:50;;;;;;;16.43;15.13;;;8.10;99.90;;;;;;4801808;29;20234;-54
2024/03/14 00:17:18;;;;;;;16.90;15.40;;;8.00;1.00;;;;;;4805897;29;20190;-51
2024/03/14 00:19:44;;;;;;;14.90;13.80;;;8.00;1.00;;;;;;4801628;29;20789;-51
2024/03/14 00:22:10;;;;;;;16.50;15.13;;;7.90;1.00;;;;;;4808605;29;20491;-54
2024/03/14 00:24:37;;;;;;;17.10;15.63;;;8.00;1.00;;;;;;4806003;29;20574;-48
2024/03/14 00:27:03;;;;;;;16.53;15.10;;;7.90;1.00;;;;;;4808315;29;20194;-49
2024/03/14 00:29:30;;;;;;;16.00;14.70;;;7.90;16.90;;;;;;4812351;29;21224;-52
2024/03/14 00:31:56;;;;;;;17.00;15.67;;;7.90;99.90;;;;;;4801253;29;20446;-52
2024/03/14 00:34:22;;;;;;;15.70;14.47;;;7.80;99.90;;;;;;4804385;29;20435;-49
2024/03/14 00:36:48;;;;;;;17.27;15.97;;;7.80;99.90;;;;;;4802117;29;21006;-53
2024/03/14 00:39:15;;;;;;;16.17;14.97;;;7.90;99.90;;;;;;4797619;29;20202;-52
2024/03/14 00:41:40;;;;;;;17.80;16.30;;;7.80;99.90;;;;;;4800774;29;20434;-49
2024/03/14 00:44:06;;;;;;;17.70;16.07;;;7.90;99.90;;;;;;4797017;29;20511;-55
2024/03/14 00:46:33;;;;;;;17.27;15.53;;;7.80;99.90;;;;;;4805434;29;20197;-53
2024/03/14 00:48:59;;;;;;;17.60;16.13;;;7.80;99.90;;;;;;4803369;29;20194;-50
2024/03/14 00:51:25;;;;;;;16.53;15.10;;;7.80;1.00;;;;;;4803025;29;20475;-53
2024/03/14 00:53:52;;;;;;;16.50;15.20;;;7.90;99.90;;;;;;4801520;29;20475;-49
2024/03/14 00:56:17;;;;;;;16.80;15.50;;;7.80;99.90;;;;;;4804672;29;20831;-52
2024/03/14 00:58:43;;;;;;;15.80;14.70;;;7.80;1.00;;;;;;4798250;29;20447;-49
2024/03/14 01:01:08;;;;;;;16.20;15.00;;;7.80;1.00;;;;;;4807693;29;20607;-51
2024/03/14 01:03:35;;;;;;;15.80;14.60;;;7.80;1.00;;;;;;4802036;29;21100;-50
2024/03/14 01:06:01;;;;;;;16.23;14.93;;;7.80;1.00;;;;;;4803276;29;20288;-52
2024/03/14 01:08:27;;;;;;;16.97;15.67;;;7.80;1.00;;;;;;4804355;29;20443;-51
2024/03/14 01:10:53;;;;;;;16.63;15.07;;;7.80;1.00;;;;;;4806820;29;20194;-49
2024/03/14 01:13:19;;;;;;;17.57;16.13;;;7.80;1.00;;;;;;4796095;29;20448;-48
2024/03/14 01:15:45;;;;;;;16.60;15.20;;;7.80;1.00;;;;;;4810182;29;20198;-48
2024/03/14 01:18:10;;;;;;;15.77;14.37;;;7.80;1.00;;;;;;4804771;29;20444;-52
2024/03/14 01:20:38;;;;;;;15.77;14.33;;;7.80;1.00;;;;;;4811296;29;20959;-46
2024/03/14 01:23:07;;;;;;;17.00;15.60;;;7.70;1.00;;;;;;4803701;29;20190;-50
2024/03/14 01:25:36;;;;;;;16.23;15.07;;;7.70;1.00;;;;;;4799691;29;20788;-47
2024/03/14 01:28:01;;;;;;;16.20;14.90;;;7.70;1.00;;;;;;4804899;29;20838;-51
2024/03/14 01:30:28;;;;;;;16.70;15.30;;;7.70;1.00;;;;;;4792216;29;20440;-55
2024/03/14 01:32:53;;;;;;;16.47;15.20;;;7.70;28.00;;;;;;4793463;29;20281;-54
2024/03/14 01:35:19;;;;;;;16.00;14.80;;;7.70;99.90;;;;;;4811509;29;20430;-51
2024/03/14 01:37:45;;;;;;;16.63;15.17;;;7.70;99.90;;;;;;4808684;29;20248;-52
2024/03/14 01:40:12;;;;;;;16.23;14.93;;;7.70;99.90;;;;;;4810746;29;20229;-50
2024/03/14 01:42:40;;;;;;;17.27;15.63;;;7.70;99.90;;;;;;4807788;29;20198;-52
2024/03/14 01:45:10;;;;;;;16.50;15.10;;;7.70;99.90;;;;;;4808559;29;20506;-41
2024/03/14 01:47:36;;;;;;;16.50;15.10;;;7.80;99.90;;;;;;4810911;29;20442;-46
2024/03/14 01:50:05;;;;;;;16.70;15.47;;;7.80;99.90;;;;;;4805800;29;20620;-45
2024/03/14 01:52:34;;;;;;;16.73;15.43;;;7.80;99.90;;;;;;4810670;29;20449;-45
2024/03/14 01:55:02;;;;;;;16.57;15.43;;;7.80;99.90;;;;;;4797522;29;20452;-42
2024/03/14 01:57:28;;;;;;;16.80;15.30;;;7.80;99.90;;;;;;4800342;29;20544;-41
2024/03/14 01:59:58;;;;;;;17.00;15.70;;;7.80;1.00;;;;;;4800115;29;20451;-41
2024/03/14 02:02:27;;;;;;;16.83;15.53;;;7.80;99.90;;;;;;4796577;29;20986;-41
2024/03/14 02:05:23;;;;;;;16.17;15.00;;;7.80;99.90;;;;;;4800647;29;21120;-47
2024/03/14 02:07:49;;;;;;;16.13;14.93;;;7.70;99.90;;;;;;4810922;29;20470;-44
2024/03/14 02:10:15;;;;;;;17.30;15.80;;;7.70;1.00;;;;;;4794666;29;20937;-46
2024/03/14 02:12:41;;;;;;;16.33;14.90;;;7.60;1.00;;;;;;4798899;29;20746;-42
2024/03/14 02:15:08;;;;;;;16.50;15.20;;;7.60;56.70;;;;;;4804701;29;20242;-40
2024/03/14 02:17:34;;;;;;;16.60;15.00;;;7.60;99.90;;;;;;4803914;29;20981;-40
2024/03/14 02:20:00;;;;;;;15.00;13.77;;;7.70;99.90;;;;;;4797642;29;20439;-45
2024/03/14 02:22:27;;;;;;;17.20;15.80;;;7.70;99.90;;;;;;4810558;29;20454;-42
2024/03/14 02:24:53;;;;;;;17.37;16.07;;;7.60;99.90;;;;;;4800764;29;20529;-46
2024/03/14 02:27:25;;;;;;;16.80;15.40;;;7.60;1.00;;;;;;4810020;29;20423;-44
2024/03/14 02:29:51;;;;;;;17.07;15.77;;;7.60;1.00;;;;;;4797282;29;20500;-43
2024/03/14 02:32:18;;;;;;;16.60;15.30;;;7.50;1.00;;;;;;4802785;29;20443;-40
2024/03/14 02:34:44;;;;;;;17.10;15.70;;;7.50;99.90;;;;;;4795186;29;20460;-46
2024/03/14 02:37:11;;;;;;;16.70;15.30;;;7.40;99.90;;;;;;4796871;29;20940;-43
2024/03/14 02:39:37;;;;;;;19.53;16.50;;;7.40;1.00;;;;;;4799117;29;20286;-43
2024/03/14 02:42:06;;;;;;;17.80;16.40;;;7.40;1.00;;;;;;4804107;29;20490;-44
2024/03/14 02:44:32;;;;;;;18.17;16.57;;;7.30;1.00;;;;;;4804334;29;20569;-44
2024/03/14 02:46:57;;;;;;;18.70;16.90;;;7.30;1.00;;;;;;4800152;29;20514;-46
2024/03/14 02:49:23;;;;;;;18.97;17.27;;;7.30;1.00;;;;;;4803627;29;20436;-41
2024/03/14 02:51:49;;;;;;;17.97;16.20;;;7.30;1.00;;;;;;4798894;29;20292;-45
2024/03/14 02:54:15;;;;;;;16.90;15.50;;;7.30;36.10;;;;;;4807412;29;20895;-46
2024/03/14 02:56:42;;;;;;;18.30;16.60;;;7.30;58.30;;;;;;4802260;29;20466;-41
2024/03/14 02:59:09;;;;;;;17.10;15.70;;;7.30;85.00;;;;;;4812692;29;20235;-46
2024/03/14 03:01:37;;;;;;;17.90;16.20;;;7.30;48.50;;;;;;4810011;29;20457;-43
2024/03/14 03:04:03;;;;;;;17.30;15.70;;;7.40;1.00;;;;;;4803605;29;20490;-42
2024/03/14 03:06:29;;;;;;;18.00;16.40;;;7.40;1.00;;;;;;4802384;29;20459;-42
2024/03/14 03:08:56;;;;;;;17.47;16.00;;;7.40;1.00;;;;;;4813491;29;20426;-40
2024/03/14 03:11:22;;;;;;;17.53;16.10;;;7.40;1.00;;;;;;4809510;29;20756;-46
2024/03/14 03:13:48;;;;;;;18.20;16.57;;;7.50;1.00;;;;;;4809897;29;20478;-42
2024/03/14 03:16:13;;;;;;;19.67;16.27;;;7.50;1.00;;;;;;4802351;29;20650;-41
2024/03/14 03:18:39;;;;;;;18.33;16.73;;;7.50;1.00;;;;;;4809554;29;20194;-42
2024/03/14 03:21:05;;;;;;;17.30;15.93;;;7.50;1.00;;;;;;4806559;29;20202;-40
2024/03/14 03:23:31;;;;;;;18.67;17.07;;;7.50;1.00;;;;;;4809477;29;20731;-41
2024/03/14 03:25:56;;;;;;;18.93;17.00;;;7.50;1.00;;;;;;4809148;29;20258;-46
2024/03/14 03:28:23;;;;;;;17.83;16.23;;;7.50;1.00;;;;;;4810817;29;20447;-40
2024/03/14 03:30:48;;;;;;;18.70;17.00;;;7.50;1.00;;;;;;4791506;29;20273;-41
2024/03/14 03:33:20;;;;;;;18.10;16.40;;;7.50;1.00;;;;;;4809238;29;20525;-47
2024/03/14 03:35:46;;;;;;;17.50;15.70;;;7.60;1.00;;;;;;4805447;29;20186;-41
2024/03/14 03:38:13;;;;;;;19.03;17.43;;;7.60;1.00;;;;;;4801404;29;20457;-42
2024/03/14 03:40:40;;;;;;;18.37;16.70;;;7.60;99.90;;;;;;4797338;29;20436;-46
2024/03/14 03:43:07;;;;;;;19.00;17.30;;;7.70;99.90;;;;;;4802013;29;20458;-44
2024/03/14 03:45:34;;;;;;;18.77;17.17;;;7.60;99.90;;;;;;4807690;29;20547;-44
2024/03/14 03:48:00;;;;;;;18.60;16.93;;;7.60;99.90;;;;;;4805509;29;20455;-43
2024/03/14 03:50:26;;;;;;;19.43;17.43;;;7.60;99.90;;;;;;4804775;29;20539;-44
2024/03/14 03:52:52;;;;;;;17.67;16.07;;;7.60;1.00;;;;;;4795187;29;21034;-42
2024/03/14 03:55:18;;;;;;;18.83;17.13;;;7.60;1.00;;;;;;4807885;29;20615;-43
2024/03/14 03:57:44;;;;;;;19.13;17.33;;;7.60;1.00;;;;;;4810137;29;20530;-44
2024/03/14 04:02:56;;;;;;;18.43;16.93;;;7.60;99.90;;;;;;4806212;29;20451;-43
2024/03/14 04:05:22;;;;;;;18.80;17.10;;;7.70;1.00;;;;;;4807642;29;20539;-46
2024/03/14 04:07:49;;;;;;;19.63;17.67;;;7.60;1.00;;;;;;4789959;29;20459;-46
2024/03/14 04:10:15;;;;;;;18.47;16.77;;;7.70;1.00;;;;;;4805944;29;21191;-43
2024/03/14 04:12:41;;;;;;;19.60;17.80;;;7.60;1.00;;;;;;4807604;29;20482;-44
2024/03/14 04:15:07;;;;;;;19.50;17.70;;;7.60;1.00;;;;;;4789750;29;20915;-43
2024/03/14 04:17:33;;;;;;;20.23;18.47;;;7.60;1.00;;;;;;4799848;29;20249;-42
2024/03/14 04:19:59;;;;;;;18.90;17.30;;;7.60;1.00;;;;;;4806805;29;20434;-40
2024/03/14 04:22:25;;;;;;;18.50;16.80;;;7.60;1.00;;;;;;4799045;29;20197;-43
2024/03/14 04:24:54;;;;;;;19.03;17.33;;;7.70;1.00;;;;;;4806872;29;20539;-44
2024/03/14 04:27:21;;;;;;;20.30;18.30;;;7.70;1.00;;;;;;4796465;29;20442;-45
2024/03/14 04:29:47;;;;;;;19.87;17.90;;;7.70;1.00;;;;;;4811735;29;20467;-46
2024/03/14 04:32:13;;;;;;;19.20;17.50;;;7.70;1.00;;;;;;4801218;29;21065;-43
2024/03/14 04:34:39;;;;;;;18.97;17.10;;;7.70;1.00;;;;;;4805950;29;20458;-40
2024/03/14 04:37:08;;;;;;;19.70;17.90;;;7.60;1.00;;;;;;4805016;29;21015;-42
2024/03/14 04:39:33;;;;;;;19.40;17.40;;;7.50;1.00;;;;;;4802364;29;20462;-43
2024/03/14 04:41:59;;;;;;;20.40;18.40;;;7.50;1.00;;;;;;4807353;29;20438;-42
2024/03/14 04:44:25;;;;;;;19.43;17.53;;;7.50;7.10;;;;;;4810460;29;20646;-42
2024/03/14 04:46:54;;;;;;;19.60;17.80;;;7.50;19.00;;;;;;4806789;29;20200;-43
2024/03/14 04:49:21;;;;;;;22.97;17.13;;;7.50;27.70;;;;;;4803607;29;20483;-45
2024/03/14 04:51:47;;;;;;;19.13;17.33;;;7.40;39.80;;;;;;4802989;29;20465;-49
2024/03/14 04:54:16;;;;;;;17.83;16.10;;;7.40;55.00;;;;;;4801853;29;20456;-42
2024/03/14 04:56:41;;;;;;;18.13;16.50;;;7.50;68.00;;;;;;4797203;29;20195;-43
2024/03/14 04:59:09;;;;;;;19.60;17.50;;;7.40;66.90;;;;;;4801872;29;20454;-45
2024/03/14 05:01:35;;;;;;;18.57;16.70;;;7.40;73.50;;;;;;4798520;29;20219;-51
2024/03/14 05:04:03;;;;;;;19.00;17.20;;;7.40;76.70;;;;;;4804169;29;20486;-53
2024/03/14 05:06:28;;;;;;;20.57;17.87;;;7.40;77.00;;;;;;4806887;29;21190;-53
2024/03/14 05:08:54;;;;;;;20.13;18.03;;;7.40;80.20;;;;;;4797507;29;20849;-49
2024/03/14 05:11:21;;;;;;;20.70;18.13;;;7.40;86.60;;;;;;4806072;29;20213;-50
2024/03/14 05:13:56;;;;;;;19.97;18.07;;;7.40;76.90;;;;;;4802737;29;20846;-51
2024/03/14 05:16:26;;;;;;;19.10;17.10;;;7.40;65.40;;;;;;4803614;29;20491;-50
2024/03/14 05:18:51;;;;;;;20.23;17.20;;;7.40;66.80;;;;;;4809968;29;20958;-53
2024/03/14 05:21:17;;;;;;;20.20;18.20;;;7.50;59.70;;;;;;4804588;29;20427;-51
2024/03/14 05:23:43;;;;;;;21.50;18.53;;;7.40;34.20;;;;;;4810590;29;20202;-55
2024/03/14 05:26:08;;;;;;;20.60;18.70;;;7.40;34.60;;;;;;4811874;29;20198;-47
2024/03/14 05:28:35;;;;;;;19.77;17.80;;;7.40;32.20;;;;;;4801934;29;20202;-53
2024/03/14 05:31:01;;;;;;;18.27;16.47;;;7.40;36.30;;;;;;4801617;29;20196;-48
2024/03/14 05:33:27;;;;;;;21.43;18.60;;;7.40;40.00;;;;;;4804733;29;20444;-52
2024/03/14 05:35:53;;;;;;;20.17;18.23;;;7.40;50.80;;;;;;4795322;29;20666;-48
2024/03/14 05:38:18;;;;;;;22.17;18.50;;;7.40;63.00;;;;;;4786182;29;20457;-46
2024/03/14 05:40:45;;;;;;;21.10;19.00;;;7.40;89.90;;;;;;4802874;29;20428;-44
2024/03/14 05:43:11;;;;;;;20.90;18.87;;;7.50;94.20;;;;;;4789095;29;20207;-47
2024/03/14 05:45:37;;;;;;;26.13;21.53;;;7.40;96.30;;;;;;4803761;29;20486;-51
2024/03/14 05:48:11;;;;;;;20.77;18.67;;;7.40;99.90;;;;;;4798739;29;20555;-51
2024/03/14 05:50:37;;;;;;;21.60;19.07;;;7.40;99.90;;;;;;4805356;29;20609;-46
2024/03/14 05:53:03;;;;;;;21.00;18.90;;;7.40;99.90;;;;;;4805125;29;20442;-50
2024/03/14 05:55:32;;;;;;;21.03;18.93;;;7.30;99.90;;;;;;4810597;29;20431;-48
2024/03/14 05:57:57;;;;;;;26.47;20.03;;;7.40;99.90;;;;;;4804841;29;20503;-48
2024/03/14 06:00:24;;;;;;;21.73;19.43;;;7.40;99.90;;;;;;4807470;29;20924;-52
2024/03/14 06:02:49;;;;;;;21.93;18.60;;;7.40;99.90;;;;;;4802594;29;20201;-46
2024/03/14 06:05:15;;;;;;;21.37;19.20;;;7.40;99.90;;;;;;4801871;29;21011;-42
2024/03/14 06:07:44;;;;;;;22.67;20.23;;;7.40;99.90;;;;;;4806576;29;20201;-38
2024/03/14 06:10:10;;;;;;;21.63;19.33;;;7.40;99.90;;;;;;4800261;29;20179;-42
2024/03/14 06:12:39;;;;;;;21.40;19.47;;;7.40;99.90;;;;;;4806737;29;20458;-40
2024/03/14 06:15:08;;;;;;;21.47;19.30;;;7.40;99.90;;;;;;4803310;29;20253;-45
2024/03/14 06:17:34;;;;;;;22.23;19.93;;;7.40;99.90;;;;;;4805752;29;20424;-42
2024/03/14 06:20:00;;;;;;;23.87;20.80;;;7.40;99.90;;;;;;4806457;29;20434;-41
2024/03/14 06:22:26;;;;;;;25.97;19.80;;;7.30;99.90;;;;;;4806594;29;20682;-42
2024/03/14 06:24:51;;;;;;;21.83;19.60;;;7.30;99.90;;;;;;4793507;29;20713;-40
2024/03/14 06:27:17;;;;;;;22.03;19.67;;;7.40;99.90;;;;;;4802606;29;20836;-40
2024/03/14 06:29:43;;;;;;;21.63;19.30;;;7.40;99.90;;;;;;4803542;29;20522;-41
2024/03/14 06:32:09;;;;;;;24.03;18.80;;;7.40;99.90;;;;;;4805455;29;20186;-42
2024/03/14 06:34:36;;;;;;;22.07;19.60;;;7.40;99.90;;;;;;4808355;29;20209;-39
2024/03/14 06:37:02;;;;;;;22.67;20.07;;;7.30;99.90;;;;;;4797182;29;20493;-42
2024/03/14 06:39:28;;;;;;;25.17;20.07;;;7.30;99.90;;;;;;4798823;29;20447;-44
2024/03/14 06:41:54;;;;;;;21.67;18.83;;;7.30;99.90;;;;;;4812975;29;20431;-39
2024/03/14 06:44:19;;;;;;;23.40;19.03;;;7.40;99.90;;;;;;4801361;29;20221;-40
2024/03/14 06:46:45;;;;;;;21.50;19.20;;;7.40;99.90;;;;;;4806078;29;20230;-48
2024/03/14 06:49:13;;;;;;;26.00;19.90;;;7.50;99.90;;;;;;4797166;29;20489;-48
2024/03/14 06:51:42;;;;;;;20.47;18.33;;;7.50;99.90;;;;;;4813948;29;20190;-47
2024/03/14 06:54:09;;;;;;;25.00;20.10;;;7.60;99.90;;;;;;4799064;29;20444;-53
2024/03/14 06:56:38;;;;;;;23.03;20.43;;;7.60;99.90;;;;;;4813308;29;20435;-48
2024/03/14 06:59:06;;;;;;;23.43;19.30;;;7.70;99.90;;;;;;4804089;29;20452;-47
2024/03/14 07:01:32;;;;;;;23.67;18.90;;;7.70;99.90;;;;;;4812965;29;20459;-46
2024/03/14 07:03:58;;;;;;;24.03;19.70;;;7.90;99.90;;;;;;4802352;29;20593;-49
2024/03/14 07:06:26;;;;;;;23.67;21.10;;;7.90;99.90;;;;;;4813380;29;20416;-51
2024/03/14 07:08:56;;;;;;;24.60;21.53;;;7.90;99.90;;;;;;4808918;29;20454;-49
2024/03/14 07:11:23;;;;;;;25.43;19.23;;;7.90;99.90;;;;;;4813528;29;20419;-49
2024/03/14 07:13:49;;;;;;;25.37;19.97;;;7.90;99.90;;;;;;4808867;29;20478;-48
2024/03/14 07:16:16;;;;;;;27.37;21.80;;;7.90;99.90;;;;;;4813367;29;20430;-47
2024/03/14 07:18:41;;;;;;;23.10;20.07;;;8.00;99.90;;;;;;4808455;29;20212;-51
2024/03/14 07:21:07;;;;;;;22.67;18.93;;;8.10;99.90;;;;;;4805152;29;20427;-48
2024/03/14 07:23:33;;;;;;;24.33;19.60;;;8.10;99.90;;;;;;4809316;29;20201;-49
2024/03/14 07:25:59;;;;;;;24.40;20.90;;;8.20;99.90;;;;;;4798299;29;20195;-51
2024/03/14 07:28:26;;;;;;;22.63;19.90;;;8.20;99.90;;;;;;4811016;29;20420;-47
2024/03/14 07:30:52;;;;;;;23.77;21.27;;;8.20;99.90;;;;;;4811059;29;20449;-50
2024/03/14 07:33:17;;;;;;;21.87;19.17;;;8.30;99.90;;;;;;4800848;29;20431;-51
2024/03/14 07:35:45;;;;;;;23.27;19.73;;;8.30;99.90;;;;;;4812173;29;20265;-45
2024/03/14 07:38:13;;;;;;;21.63;19.37;;;8.30;99.90;;;;;;4812660;29;20202;-48
2024/03/14 07:40:38;;;;;;;23.40;20.83;;;8.30;99.90;;;;;;4803082;29;20447;-47
2024/03/14 07:43:04;;;;;;;22.83;19.10;;;8.30;99.90;;;;;;4809589;29;20470;-48
2024/03/14 07:45:30;;;;;;;21.87;19.67;;;8.30;99.90;;;;;;4805565;29;20573;-50
2024/03/14 07:47:55;;;;;;;24.17;20.90;;;8.40;99.90;;;;;;4806829;29;20190;-48
2024/03/14 07:50:24;;;;;;;22.80;20.43;;;8.40;99.90;;;;;;4808697;29;20257;-46
2024/03/14 07:52:50;;;;;;;22.37;19.97;;;8.40;99.90;;;;;;4806136;29;20205;-52
2024/03/14 07:55:16;;;;;;;22.13;19.57;;;8.50;99.90;;;;;;4800174;29;20935;-51
2024/03/14 07:57:42;;;;;;;25.53;20.10;;;8.40;99.90;;;;;;4809536;29;20533;-48
2024/03/14 08:00:08;;;;;;;28.03;20.53;;;8.50;99.90;;;;;;4802942;29;20952;-50
2024/03/14 08:02:34;;;;;;;21.43;19.23;;;8.50;99.90;;;;;;4804190;29;20729;-47
2024/03/14 08:05:04;;;;;;;22.03;19.77;;;8.60;99.90;;;;;;4811087;29;20479;-50
2024/03/14 08:07:29;;;;;;;22.13;20.03;;;8.70;99.90;;;;;;4803270;29;21283;-43
2024/03/14 08:09:57;;;;;;;22.73;20.27;;;8.70;99.90;;;;;;4809647;29;20493;-48
2024/03/14 08:12:24;;;;;;;22.40;20.10;;;8.70;99.90;;;;;;4796674;29;20204;-49
2024/03/14 08:14:49;;;;;;;25.87;22.50;;;8.80;99.90;;;;;;4803520;29;20879;-45
2024/03/14 08:17:15;;;;;;;25.73;22.63;;;8.80;99.90;;;;;;4809586;29;20435;-51
2024/03/14 08:19:43;;;;;;;22.73;20.23;;;8.90;99.90;;;;;;4807028;29;20202;-48
2024/03/14 08:22:09;;;;;;;23.40;20.90;;;9.00;99.90;;;;;;4809374;29;20626;-47
2024/03/14 08:24:47;;;;;;;23.60;21.07;;;9.00;99.90;;;;;;4809423;29;20479;-52
2024/03/14 08:27:13;;;;;;;24.10;21.13;;;9.00;99.90;;;;;;4812113;29;20600;-47
2024/03/14 08:29:40;;;;;;;23.00;20.70;;;9.10;99.90;;;;;;4808583;29;20428;-47
2024/03/14 08:32:06;;;;;;;24.17;21.67;;;9.10;99.90;;;;;;4805203;29;20505;-49
2024/03/14 08:34:34;;;;;;;24.30;21.70;;;9.20;99.90;;;;;;4794737;29;20434;-53
2024/03/14 08:37:00;;;;;;;26.80;23.83;;;9.30;99.90;;;;;;4802775;29;20590;-51
2024/03/14 08:39:28;;;;;;;24.67;22.10;;;9.40;99.90;;;;;;4795403;29;20451;-51
2024/03/14 08:41:54;;;;;;;27.03;22.63;;;9.30;99.90;;;;;;4812047;29;20786;-39
2024/03/14 08:44:28;;;;;;;26.63;23.90;;;9.40;99.90;;;;;;4803367;29;20486;-46
2024/03/14 08:46:54;;;;;;;25.10;22.60;;;9.40;99.90;;;;;;4799611;29;21029;-42
2024/03/14 08:49:20;;;;;;;25.70;23.10;;;9.40;99.90;;;;;;4805076;29;20439;-40
2024/03/14 08:51:46;;;;;;;26.20;23.50;;;9.40;99.90;;;;;;4803160;29;20442;-42
2024/03/14 08:56:47;;;;;;;27.67;23.60;;;9.40;99.90;;;;;;4804398;29;20537;-49
2024/03/14 08:59:13;;;;;;;29.30;25.30;;;9.40;99.90;;;;;;4808997;29;20812;-48
2024/03/14 09:01:39;;;;;;;25.40;22.80;;;9.50;99.90;;;;;;4805714;29;20456;-47
2024/03/14 09:04:05;;;;;;;27.87;23.53;;;9.60;99.90;;;;;;4807888;29;20254;-47
2024/03/14 09:06:33;;;;;;;27.77;24.77;;;9.60;99.90;;;;;;4798491;29;20439;-50
2024/03/14 09:09:04;;;;;;;26.80;24.10;;;9.80;99.90;;;;;;4797649;29;20872;-47
2024/03/14 09:11:32;;;;;;;31.00;26.00;;;10.00;99.90;;;;;;4795615;29;20435;-46
2024/03/14 09:13:58;;;;;;;27.70;24.80;;;10.10;99.90;;;;;;4783370;29;20543;-48
2024/03/14 09:16:26;;;;;;;27.60;24.83;;;10.40;99.90;;;;;;4810635;29;20459;-47
2024/03/14 09:18:52;;;;;;;26.70;23.80;;;10.50;99.90;;;;;;4803547;29;20473;-51
2024/03/14 09:21:19;;;;;;;26.30;23.33;;;10.60;99.90;;;;;;4802339;29;20431;-51
2024/03/14 09:23:45;;;;;;;25.87;22.30;;;10.80;99.90;;;;;;4803463;29;20499;-47
2024/03/14 09:26:11;;;;;;;25.20;22.80;;;10.80;99.90;;;;;;4803601;29;20412;-49
2024/03/14 09:28:43;;;;;;;25.07;22.53;;;10.90;99.90;;;;;;4805958;29;20954;-39
2024/03/14 09:31:09;;;;;;;25.33;22.90;;;10.90;99.90;;;;;;4803567;29;20985;-39
2024/03/14 09:33:37;;;;;;;23.73;21.20;;;10.80;99.90;;;;;;4809163;29;20454;-41
2024/03/14 09:36:04;;;;;;;26.47;23.90;;;10.90;99.90;;;;;;4803213;29;20821;-39
2024/03/14 09:38:33;;;;;;;25.53;23.20;;;10.90;99.90;;;;;;4807744;29;20629;-43
2024/03/14 09:40:59;;;;;;;24.17;21.67;;;10.90;99.90;;;;;;4799945;29;20431;-40
2024/03/14 09:43:25;;;;;;;23.13;20.73;;;10.90;99.90;;;;;;4804641;29;20450;-43
2024/03/14 09:45:54;;;;;;;24.23;21.60;;;11.00;99.90;;;;;;4807843;29;20629;-41
2024/03/14 09:48:20;;;;;;;22.97;20.53;;;11.10;99.90;;;;;;4794327;29;20505;-45
2024/03/14 09:50:51;;;;;;;26.13;21.70;;;11.40;99.90;;;;;;4793961;29;21023;-39
2024/03/14 09:53:20;;;;;;;23.57;21.13;;;11.50;99.90;;;;;;4800277;29;20515;-45
2024/03/14 09:55:46;;;;;;;25.00;22.40;;;11.70;99.90;;;;;;4810482;29;20481;-39
2024/03/14 09:58:14;;;;;;;22.30;20.10;;;11.80;99.90;;;;;;4810274;29;20502;-39
2024/03/14 10:00:40;;;;;;;23.27;21.10;;;11.80;99.90;;;;;;4794534;29;20457;-42
2024/03/14 10:03:07;;;;;;;21.60;19.60;;;11.90;99.90;;;;;;4800747;29;20745;-41
2024/03/14 10:05:35;;;;;;;22.50;20.17;;;12.10;99.90;;;;;;4805793;29;20893;-39
2024/03/14 10:08:03;;;;;;;23.23;21.00;;;12.30;99.90;;;;;;4801683;29;20950;-41
2024/03/14 10:10:34;;;;;;;21.23;19.00;;;12.40;99.90;;;;;;4806167;29;20447;-45
2024/03/14 10:13:00;;;;;;;23.40;21.17;;;12.50;99.90;;;;;;4810814;29;20431;-39
2024/03/14 10:15:27;;;;;;;20.90;19.00;;;12.70;99.90;;;;;;4798692;29;20684;-45
2024/03/14 10:17:53;;;;;;;21.90;20.00;;;12.90;99.90;;;;;;4805092;29;20190;-40
2024/03/14 10:20:19;;;;;;;22.50;20.40;;;13.00;99.90;;;;;;4800308;29;21263;-46
2024/03/14 10:22:51;;;;;;;22.77;20.57;;;13.00;99.90;;;;;;4805521;29;20435;-40
2024/03/14 10:25:23;;;;;;;23.27;21.03;;;13.20;99.90;;;;;;4809407;29;20521;-42
2024/03/14 10:27:51;;;;;;;22.10;20.10;;;13.20;99.90;;;;;;4806319;29;20483;-44
2024/03/14 10:30:18;;;;;;;23.30;21.20;;;13.10;99.90;;;;;;4803263;29;20729;-42
2024/03/14 10:32:47;;;;;;;21.03;19.10;;;13.10;99.90;;;;;;4807490;29;20514;-40
2024/03/14 10:35:19;;;;;;;20.03;18.23;;;13.10;99.90;;;;;;4809009;29;20934;-41
2024/03/14 10:37:46;;;;;;;19.50;17.70;;;13.10;99.90;;;;;;4792887;29;20947;-39
2024/03/14 10:40:21;;;;;;;18.67;17.03;;;13.20;99.90;;;;;;4804710;29;20449;-43
2024/03/14 10:42:49;;;;;;;19.40;17.53;;;13.30;99.90;;;;;;4801107;29;20522;-43
2024/03/14 10:45:16;;;;;;;18.17;16.57;;;13.30;99.90;;;;;;4809249;29;20485;-45
2024/03/14 10:47:42;;;;;;;19.60;17.80;;;13.20;99.90;;;;;;4802072;29;20432;-42
2024/03/14 10:50:16;;;;;;;20.07;18.20;;;13.20;99.90;;;;;;4805191;29;20422;-48
2024/03/14 10:52:50;;;;;;;19.53;17.80;;;13.30;99.90;;;;;;4803327;29;20462;-47
2024/03/14 10:55:18;;;;;;;19.37;17.27;;;13.40;99.90;;;;;;4788662;29;20448;-53
2024/03/14 10:57:45;;;;;;;18.50;16.77;;;13.30;99.90;;;;;;4805008;29;20442;-50
2024/03/14 11:00:17;;;;;;;18.53;16.83;;;13.30;99.90;;;;;;4802779;29;20439;-42
2024/03/14 11:02:46;;;;;;;18.17;16.47;;;13.40;99.90;;;;;;4785424;29;20446;-42
2024/03/14 11:05:12;;;;;;;16.47;14.90;;;13.50;99.90;;;;;;4804427;29;20471;-39
2024/03/14 11:07:42;;;;;;;18.63;17.13;;;13.50;99.90;;;;;;4805681;29;20895;-42
2024/03/14 11:10:23;;;;;;;18.87;16.97;;;13.50;99.90;;;;;;4797617;29;20436;-40
2024/03/14 11:12:53;;;;;;;17.57;15.80;;;13.40;99.90;;;;;;4799117;29;20423;-41
2024/03/14 11:15:21;;;;;;;17.80;16.20;;;13.50;99.90;;;;;;4803056;29;20491;-44
2024/03/14 11:17:51;;;;;;;18.80;17.20;;;13.50;99.90;;;;;;4803939;29;20824;-41
2024/03/14 11:20:25;;;;;;;17.70;16.17;;;13.40;99.90;;;;;;4805349;29;20448;-40
2024/03/14 11:22:55;;;;;;;19.03;17.20;;;13.60;99.90;;;;;;4804765;29;21359;-42
2024/03/14 11:25:22;;;;;;;18.40;16.80;;;13.70;99.90;;;;;;4808489;29;20471;-42
2024/03/14 11:27:50;;;;;;;18.90;17.33;;;13.90;99.90;;;;;;4808425;29;20432;-39
2024/03/14 11:30:16;;;;;;;19.30;17.43;;;14.00;99.90;;;;;;4811743;29;20480;-41
2024/03/14 11:32:55;;;;;;;17.30;15.73;;;14.20;99.90;;;;;;4802625;29;20798;-39
2024/03/14 11:35:40;;;;;;;18.80;17.00;;;14.70;99.90;;;;;;4797249;29;20499;-40
2024/03/14 11:38:21;;;;;;;19.33;17.67;;;15.00;99.90;;;;;;4803929;29;20451;-41
2024/03/14 11:40:47;;;;;;;19.27;17.60;;;15.40;99.90;;;;;;4804333;29;20898;-45
2024/03/14 11:43:24;;;;;;;16.90;15.50;;;15.50;99.90;;;;;;4809133;29;20486;-46
2024/03/14 11:46:00;;;;;;;17.77;16.10;;;15.80;99.90;;;;;;4806153;29;20475;-50
2024/03/14 11:48:28;;;;;;;17.00;15.50;;;16.10;99.90;;;;;;4801906;29;20438;-46
2024/03/14 11:50:58;;;;;;;17.07;15.77;;;16.20;99.90;;;;;;4811299;29;20869;-53
2024/03/14 11:53:27;;;;;;;15.30;14.03;;;16.20;99.90;;;;;;4806031;29;20617;-49
2024/03/14 11:55:53;;;;;;;17.03;15.70;;;16.10;99.90;;;;;;4806508;29;20439;-43
2024/03/14 11:58:20;;;;;;;18.83;17.10;;;16.10;99.90;;;;;;4807107;29;20508;-51
2024/03/14 12:00:53;;;;;;;17.30;16.00;;;15.80;99.90;;;;;;4809391;29;20186;-49
2024/03/14 12:03:25;;;;;;;16.37;15.10;;;15.60;99.90;;;;;;4802355;29;20472;-50
2024/03/14 12:05:57;;;;;;;18.60;16.80;;;15.20;99.90;;;;;;4805995;29;20561;-51
2024/03/14 12:08:24;;;;;;;18.83;17.20;;;14.70;99.90;;;;;;4807611;29;20420;-49
2024/03/14 12:10:54;;;;;;;18.37;16.57;;;14.50;99.90;;;;;;4808467;29;20806;-48
2024/03/14 12:13:23;;;;;;;20.13;18.27;;;14.40;99.90;;;;;;4801264;29;20473;-47
2024/03/14 12:16:02;;;;;;;22.03;19.83;;;14.30;99.90;;;;;;4808724;29;20791;-51
2024/03/14 12:18:29;;;;;;;20.90;19.00;;;13.90;99.90;;;;;;4808114;29;20423;-51
2024/03/14 12:20:54;;;;;;;21.43;19.60;;;13.90;99.90;;;;;;4809653;29;20443;-47
2024/03/14 12:23:22;;;;;;;20.93;18.93;;;13.80;99.90;;;;;;4804916;29;20446;-49
2024/03/14 12:25:53;;;;;;;21.73;19.73;;;13.70;99.90;;;;;;4800625;29;20332;-49
2024/03/14 12:28:19;;;;;;;21.80;19.70;;;13.60;99.90;;;;;;4807122;29;21537;-52
2024/03/14 12:30:56;;;;;;;22.30;19.90;;;13.70;99.90;;;;;;4811957;29;20431;-49
2024/03/14 12:33:22;;;;;;;20.70;18.80;;;13.70;99.90;;;;;;4798005;29;20185;-49
2024/03/14 12:35:52;;;;;;;19.53;17.70;;;13.90;99.90;;;;;;4810766;29;20530;-47
2024/03/14 12:38:24;;;;;;;20.40;18.30;;;14.00;99.90;;;;;;4806982;29;20899;-48
2024/03/14 12:40:57;;;;;;;19.87;18.07;;;13.90;99.90;;;;;;4804716;29;21068;-50